createdAt,value
2022-12-04T00:01:12.223Z,100705.81
2022-12-04T00:03:40.724Z,100701.91
2022-12-04T00:06:10.404Z,100696.72
2022-12-04T00:08:38.556Z,100706.91
2022-12-04T00:11:09.452Z,100697.41
2022-12-04T00:13:37.669Z,100702.06
2022-12-04T00:16:06.088Z,100696.94
2022-12-04T00:18:33.956Z,100694.41
2022-12-04T00:21:05.388Z,100687.72
2022-12-04T00:23:33.218Z,100691.31
2022-12-04T00:26:01.929Z,100697.63
2022-12-04T00:28:31.262Z,100690.19
2022-12-04T00:30:59.051Z,100690.19
2022-12-04T00:33:26.954Z,100687.00
2022-12-04T00:35:58.705Z,100688.91
2022-12-04T00:38:26.619Z,100687.44
2022-12-04T00:40:55.059Z,100685.72
2022-12-04T00:43:24.297Z,100676.03
2022-12-04T00:45:53.972Z,100674.91
2022-12-04T00:48:22.001Z,100679.66
2022-12-04T00:50:50.252Z,100678.81
2022-12-04T00:53:18.163Z,100674.16
2022-12-04T00:55:45.972Z,100669.78
2022-12-04T00:58:14.265Z,100666.13
2022-12-04T01:00:43.980Z,100659.47
2022-12-04T01:03:13.143Z,100656.59
2022-12-04T01:05:41.915Z,100651.34
2022-12-04T01:08:10.592Z,100650.22
2022-12-04T01:10:39.744Z,100651.38
2022-12-04T01:13:07.462Z,100642.13
2022-12-04T01:15:38.902Z,100634.44
2022-12-04T01:18:06.756Z,100639.38
2022-12-04T01:20:36.969Z,100643.00
2022-12-04T01:23:04.743Z,100641.28
2022-12-04T01:25:32.533Z,100638.06
2022-12-04T01:28:00.294Z,100639.63
2022-12-04T01:30:28.158Z,100632.31
2022-12-04T01:32:55.942Z,100636.00
2022-12-04T01:35:23.869Z,100628.84
2022-12-04T01:37:52.923Z,100639.78
2022-12-04T01:40:20.761Z,100631.22
2022-12-04T01:42:48.487Z,100617.19
2022-12-04T01:45:39.033Z,100624.50
2022-12-04T01:48:14.468Z,100621.13
2022-12-04T01:50:45.131Z,100621.31
2022-12-04T01:53:15.623Z,100615.44
2022-12-04T01:55:45.024Z,100615.47
2022-12-04T01:58:13.577Z,100613.19
2022-12-04T02:00:41.370Z,100610.41
2022-12-04T02:03:09.163Z,100611.88
2022-12-04T02:05:37.002Z,100613.38
2022-12-04T02:08:06.366Z,100615.50
2022-12-04T02:10:49.352Z,100619.53
2022-12-04T02:13:26.700Z,100618.88
2022-12-04T02:15:58.304Z,100617.81
2022-12-04T02:18:32.871Z,100629.22
2022-12-04T02:21:07.583Z,100616.22
2022-12-04T02:23:57.095Z,100622.91
2022-12-04T02:26:37.971Z,100613.44
2022-12-04T02:29:13.346Z,100619.78
2022-12-04T02:31:45.372Z,100617.69
2022-12-04T02:34:17.503Z,100612.72
2022-12-04T02:36:51.348Z,100608.41
2022-12-04T02:39:24.246Z,100607.22
2022-12-04T02:41:59.923Z,100603.28
2022-12-04T02:44:36.228Z,100605.69
2022-12-04T02:47:11.239Z,100608.94
2022-12-04T02:49:45.321Z,100609.78
2022-12-04T02:52:18.263Z,100614.09
2022-12-04T02:54:51.524Z,100609.69
2022-12-04T02:57:24.032Z,100603.69
2022-12-04T02:59:55.016Z,100607.75
2022-12-04T03:02:32.936Z,100606.69
2022-12-04T03:05:04.584Z,100612.56
2022-12-04T03:07:38.444Z,100605.59
2022-12-04T03:10:11.185Z,100612.53
2022-12-04T03:12:44.340Z,100608.25
2022-12-04T03:15:18.863Z,100609.31
2022-12-04T03:17:52.536Z,100601.56
2022-12-04T03:20:21.745Z,100605.75
2022-12-04T03:22:55.626Z,100610.16
2022-12-04T03:25:32.872Z,100610.63
2022-12-04T03:28:03.931Z,100601.28
2022-12-04T03:30:38.307Z,100610.84
2022-12-04T03:33:13.132Z,100603.94
2022-12-04T03:35:47.327Z,100600.41
2022-12-04T03:38:19.660Z,100601.78
2022-12-04T03:40:58.525Z,100587.22
2022-12-04T03:43:30.579Z,100596.25
2022-12-04T03:46:03.679Z,100590.66
2022-12-04T03:48:39.888Z,100580.16
2022-12-04T03:51:16.260Z,100585.34
2022-12-04T03:53:50.691Z,100586.28
2022-12-04T03:56:21.457Z,100586.81
2022-12-04T03:58:52.628Z,100591.00
2022-12-04T04:01:28.759Z,100576.59
2022-12-04T04:03:59.648Z,100579.88
2022-12-04T04:06:33.000Z,100580.38
2022-12-04T04:09:06.144Z,100583.69
2022-12-04T04:11:36.256Z,100578.00
2022-12-04T04:14:25.922Z,100579.06
2022-12-04T04:17:16.863Z,100572.53
2022-12-04T04:20:06.591Z,100573.88
2022-12-04T04:22:56.007Z,100572.41
2022-12-04T04:25:27.225Z,100574.34
2022-12-04T04:27:56.003Z,100574.34
2022-12-04T04:30:24.439Z,100577.84
2022-12-04T04:33:00.405Z,100574.69
2022-12-04T04:35:40.245Z,100574.59
2022-12-04T04:38:15.009Z,100578.16
2022-12-04T04:40:53.532Z,100578.97
2022-12-04T04:43:26.624Z,100584.25
2022-12-04T04:46:01.486Z,100589.38
2022-12-04T04:48:35.897Z,100579.53
2022-12-04T04:51:05.537Z,100584.41
2022-12-04T04:53:37.874Z,100586.59
2022-12-04T04:56:07.552Z,100585.22
2022-12-04T04:58:35.460Z,100586.88
2022-12-04T05:01:05.976Z,100586.34
2022-12-04T05:03:35.955Z,100579.16
2022-12-04T05:06:03.754Z,100582.44
2022-12-04T05:08:31.716Z,100582.28
2022-12-04T05:10:59.484Z,100582.34
2022-12-04T05:13:29.981Z,100587.03
2022-12-04T05:15:59.309Z,100586.88
2022-12-04T05:18:27.212Z,100582.94
2022-12-04T05:20:55.640Z,100578.84
2022-12-04T05:23:23.781Z,100583.19
2022-12-04T05:25:51.536Z,100580.44
2022-12-04T05:28:19.231Z,100576.19
2022-12-04T05:30:47.176Z,100578.16
2022-12-04T05:33:14.957Z,100571.38
2022-12-04T05:35:42.770Z,100570.09
2022-12-04T05:38:11.823Z,100575.66
2022-12-04T05:40:39.622Z,100574.22
2022-12-04T05:43:07.375Z,100578.25
2022-12-04T05:45:35.103Z,100580.34
2022-12-04T05:48:02.829Z,100573.53
2022-12-04T05:50:30.641Z,100576.91
2022-12-04T05:52:58.372Z,100579.53
2022-12-04T05:55:27.599Z,100576.50
2022-12-04T05:57:55.320Z,100581.72
2022-12-04T06:00:23.374Z,100584.09
2022-12-04T06:02:51.165Z,100583.28
2022-12-04T06:05:19.096Z,100585.31
2022-12-04T06:07:47.252Z,100586.06
2022-12-04T06:10:15.039Z,100584.09
2022-12-04T06:12:44.103Z,100575.25
2022-12-04T06:15:12.329Z,100584.53
2022-12-04T06:17:40.038Z,100582.88
2022-12-04T06:20:11.808Z,100582.81
2022-12-04T06:22:39.999Z,100581.22
2022-12-04T06:25:08.860Z,100588.50
2022-12-04T06:27:36.704Z,100586.69
2022-12-04T06:30:06.982Z,100595.50
2022-12-04T06:32:34.685Z,100592.59
2022-12-04T06:35:02.988Z,100602.84
2022-12-04T06:37:30.755Z,100601.16
2022-12-04T06:39:58.633Z,100607.09
2022-12-04T06:42:26.631Z,100610.13
2022-12-04T06:44:54.372Z,100613.88
2022-12-04T06:47:23.495Z,100619.88
2022-12-04T06:49:52.165Z,100612.91
2022-12-04T06:52:19.963Z,100625.31
2022-12-04T06:54:47.767Z,100616.91
2022-12-04T06:57:15.559Z,100618.03
2022-12-04T06:59:43.253Z,100618.41
2022-12-04T07:02:11.962Z,100614.34
2022-12-04T07:04:41.209Z,100615.19
2022-12-04T07:07:09.883Z,100618.63
2022-12-04T07:09:37.884Z,100621.84
2022-12-04T07:12:06.273Z,100623.44
2022-12-04T07:14:34.040Z,100625.50
2022-12-04T07:17:02.007Z,100619.97
2022-12-04T07:19:29.846Z,100617.13
2022-12-04T07:21:58.926Z,100628.97
2022-12-04T07:24:26.679Z,100629.34
2022-12-04T07:26:54.356Z,100624.34
2022-12-04T07:29:22.176Z,100621.13
2022-12-04T07:31:50.009Z,100618.50
2022-12-04T07:34:17.924Z,100623.41
2022-12-04T07:36:45.701Z,100622.53
2022-12-04T07:39:14.848Z,100623.84
2022-12-04T07:41:42.627Z,100628.94
2022-12-04T07:44:10.405Z,100628.59
2022-12-04T07:46:38.200Z,100630.44
2022-12-04T07:49:06.065Z,100632.41
2022-12-04T07:51:33.756Z,100629.56
2022-12-04T07:54:03.982Z,100629.47
2022-12-04T07:56:34.510Z,100625.50
2022-12-04T07:59:02.699Z,100636.38
2022-12-04T08:01:33.599Z,100637.41
2022-12-04T08:04:03.289Z,100628.66
2022-12-04T08:06:33.409Z,100638.13
2022-12-04T08:09:06.162Z,100633.41
2022-12-04T08:11:39.118Z,100634.19
2022-12-04T08:14:08.756Z,100635.41
2022-12-04T08:16:36.796Z,100637.94
2022-12-04T08:19:05.467Z,100645.09
2022-12-04T08:21:33.675Z,100651.25
2022-12-04T08:24:02.281Z,100651.09
2022-12-04T08:26:31.860Z,100651.50
2022-12-04T08:29:02.497Z,100647.91
2022-12-04T08:31:32.874Z,100654.13
2022-12-04T08:34:02.766Z,100645.09
2022-12-04T08:36:31.149Z,100655.78
2022-12-04T08:38:59.294Z,100654.16
2022-12-04T08:41:27.679Z,100656.91
2022-12-04T08:43:56.851Z,100653.97
2022-12-04T08:46:27.595Z,100657.31
2022-12-04T08:48:56.235Z,100659.31
2022-12-04T08:51:25.717Z,100651.50
2022-12-04T08:53:56.407Z,100658.16
2022-12-04T08:56:24.517Z,100659.59
2022-12-04T08:58:52.340Z,100658.72
2022-12-04T09:01:20.527Z,100659.19
2022-12-04T09:03:49.787Z,100662.06
2022-12-04T09:06:17.971Z,100654.63
2022-12-04T09:08:46.150Z,100655.97
2022-12-04T09:11:15.425Z,100655.53
2022-12-04T09:13:44.034Z,100658.97
2022-12-04T09:16:14.075Z,100656.97
2022-12-04T09:18:42.322Z,100659.56
2022-12-04T09:21:14.731Z,100660.06
2022-12-04T09:23:43.964Z,100659.81
2022-12-04T09:26:19.678Z,100663.38
2022-12-04T09:28:47.996Z,100663.00
2022-12-04T09:31:15.855Z,100664.75
2022-12-04T09:33:43.696Z,100665.53
2022-12-04T09:36:16.098Z,100666.25
2022-12-04T09:38:45.299Z,100666.09
2022-12-04T09:41:26.426Z,100659.63
2022-12-04T09:43:58.831Z,100658.72
2022-12-04T09:46:32.051Z,100663.09
2022-12-04T09:49:04.472Z,100659.59
2022-12-04T09:51:38.462Z,100663.88
2022-12-04T09:54:12.376Z,100668.78
2022-12-04T09:56:41.061Z,100667.28
2022-12-04T09:59:15.526Z,100676.25
2022-12-04T10:01:47.439Z,100676.31
2022-12-04T10:04:17.365Z,100673.69
2022-12-04T10:06:50.818Z,100674.56
2022-12-04T10:09:23.707Z,100685.56
2022-12-04T10:11:57.580Z,100679.59
2022-12-04T10:14:47.623Z,100684.88
2022-12-04T10:17:36.677Z,100682.31
2022-12-04T10:20:17.636Z,100683.19
2022-12-04T10:22:56.739Z,100692.00
2022-12-04T10:25:26.862Z,100680.66
2022-12-04T10:27:58.951Z,100681.03
2022-12-04T10:30:29.761Z,100685.00
2022-12-04T10:33:01.004Z,100678.78
2022-12-04T10:35:31.542Z,100675.78
2022-12-04T10:38:04.691Z,100678.38
2022-12-04T10:40:36.538Z,100684.28
2022-12-04T10:43:12.584Z,100681.38
2022-12-04T10:45:40.323Z,100679.13
2022-12-04T10:48:17.576Z,100673.59
2022-12-04T10:50:45.543Z,100673.00
2022-12-04T10:53:16.516Z,100669.31
2022-12-04T10:55:44.229Z,100675.13
2022-12-04T10:58:17.629Z,100677.25
2022-12-04T11:00:47.037Z,100671.09
2022-12-04T11:03:25.729Z,100671.25
2022-12-04T11:05:56.121Z,100666.91
2022-12-04T11:08:38.362Z,100672.31
2022-12-04T11:11:11.187Z,100673.22
2022-12-04T11:13:39.960Z,100673.78
2022-12-04T11:16:08.938Z,100668.94
2022-12-04T11:18:49.380Z,100666.88
2022-12-04T11:21:20.130Z,100672.19
2022-12-04T11:23:51.353Z,100672.00
2022-12-04T11:26:30.322Z,100665.03
2022-12-04T11:29:01.354Z,100667.00
2022-12-04T11:31:31.291Z,100664.38
2022-12-04T11:34:02.912Z,100667.22
2022-12-04T11:36:33.831Z,100665.59
2022-12-04T11:39:13.160Z,100664.56
2022-12-04T11:41:41.153Z,100669.97
2022-12-04T11:44:23.329Z,100663.19
2022-12-04T11:46:54.852Z,100669.31
2022-12-04T11:49:23.333Z,100659.63
2022-12-04T11:52:00.780Z,100664.31
2022-12-04T11:54:33.908Z,100666.84
2022-12-04T11:57:13.328Z,100665.97
2022-12-04T11:59:55.398Z,100663.53
2022-12-04T12:02:41.563Z,100665.28
2022-12-04T12:05:37.956Z,100665.25
2022-12-04T12:08:15.775Z,100660.63
2022-12-04T12:10:52.988Z,100661.28
2022-12-04T12:13:30.348Z,100669.03
2022-12-04T12:16:05.638Z,100667.06
2022-12-04T12:18:49.538Z,100660.91
2022-12-04T12:21:19.471Z,100664.41
2022-12-04T12:24:00.838Z,100662.13
2022-12-04T12:26:42.185Z,100659.03
2022-12-04T12:29:26.210Z,100665.75
2022-12-04T12:32:10.677Z,100669.44
2022-12-04T12:34:42.078Z,100662.13
2022-12-04T12:37:19.661Z,100661.84
2022-12-04T12:39:57.996Z,100655.44
2022-12-04T12:42:32.502Z,100656.38
2022-12-04T12:45:05.819Z,100647.97
2022-12-04T12:47:40.943Z,100641.94
2022-12-04T12:50:16.653Z,100638.09
2022-12-04T12:52:48.867Z,100637.09
2022-12-04T12:55:21.061Z,100638.72
2022-12-04T12:57:59.431Z,100646.59
2022-12-04T13:00:29.137Z,100641.19
2022-12-04T13:03:01.518Z,100639.28
2022-12-04T13:05:34.403Z,100642.94
2022-12-04T13:08:07.762Z,100641.94
2022-12-04T13:10:41.443Z,100642.78
2022-12-04T13:13:14.560Z,100648.34
2022-12-04T13:15:48.702Z,100640.97
2022-12-04T13:18:24.628Z,100638.91
2022-12-04T13:20:55.453Z,100644.59
2022-12-04T13:23:38.584Z,100654.34
2022-12-04T13:26:15.272Z,100654.03
2022-12-04T13:28:52.844Z,100655.63
2022-12-04T13:31:29.280Z,100656.88
2022-12-04T13:34:45.083Z,100661.53
2022-12-04T13:37:42.598Z,100659.00
2022-12-04T13:40:36.823Z,100667.22
2022-12-04T13:43:17.133Z,100662.84
2022-12-04T13:45:48.144Z,100673.25
2022-12-04T13:48:26.883Z,100671.13
2022-12-04T13:51:03.130Z,100665.28
2022-12-04T13:53:32.353Z,100669.31
2022-12-04T13:56:06.094Z,100667.75
2022-12-04T13:58:37.500Z,100673.00
2022-12-04T14:01:13.101Z,100670.34
2022-12-04T14:03:49.383Z,100674.78
2022-12-04T14:06:25.521Z,100685.72
2022-12-04T14:08:57.760Z,100675.44
2022-12-04T14:11:26.266Z,100672.50
2022-12-04T14:13:57.027Z,100677.88
2022-12-04T14:16:38.062Z,100681.06
2022-12-04T14:19:06.787Z,100683.81
2022-12-04T14:21:39.935Z,100679.03
2022-12-04T14:24:17.176Z,100681.22
2022-12-04T14:29:50.781Z,100679.63
2022-12-04T14:32:23.315Z,100677.63
2022-12-04T14:34:51.892Z,100677.88
2022-12-04T14:37:32.253Z,100674.63
2022-12-04T14:40:02.355Z,100678.25
2022-12-04T14:42:36.662Z,100677.00
2022-12-04T14:45:07.661Z,100674.78
2022-12-04T14:47:44.605Z,100673.53
2022-12-04T14:50:20.666Z,100679.81
2022-12-04T14:52:55.547Z,100681.00
2022-12-04T14:55:31.854Z,100687.28
2022-12-04T14:58:21.956Z,100696.13
2022-12-04T15:00:55.565Z,100692.91
2022-12-04T15:03:24.641Z,100695.28
2022-12-04T15:06:02.062Z,100708.34
2022-12-04T15:08:29.950Z,100705.72
2022-12-04T15:11:15.047Z,100712.38
2022-12-04T15:13:42.949Z,100701.03
2022-12-04T15:16:16.566Z,100704.59
2022-12-04T15:18:56.202Z,100708.97
2022-12-04T15:21:26.391Z,100715.75
2022-12-04T15:23:54.341Z,100721.91
2022-12-04T15:26:26.878Z,100717.00
2022-12-04T15:28:58.863Z,100726.34
2022-12-04T15:31:31.653Z,100727.13
2022-12-04T15:34:03.977Z,100733.03
2022-12-04T15:36:44.396Z,100737.31
2022-12-04T15:39:21.826Z,100742.81
2022-12-04T15:41:50.537Z,100737.63
2022-12-04T15:44:28.033Z,100740.34
2022-12-04T15:46:57.830Z,100735.09
2022-12-04T15:49:29.270Z,100739.59
2022-12-04T15:52:06.792Z,100756.78
2022-12-04T15:54:36.197Z,100754.31
2022-12-04T15:57:07.299Z,100754.34
2022-12-04T15:59:36.709Z,100758.50
2022-12-04T16:02:21.885Z,100754.31
2022-12-04T16:04:51.034Z,100758.28
2022-12-04T16:07:23.402Z,100756.31
2022-12-04T16:10:01.052Z,100758.69
2022-12-04T16:12:31.957Z,100768.72
2022-12-04T16:14:59.760Z,100761.41
2022-12-04T16:17:31.657Z,100776.31
2022-12-04T16:20:01.941Z,100769.56
2022-12-04T16:22:31.371Z,100769.38
2022-12-04T16:24:59.419Z,100775.38
2022-12-04T16:27:27.374Z,100779.50
2022-12-04T16:29:55.105Z,100783.50
2022-12-04T16:32:27.252Z,100781.81
2022-12-04T16:34:55.364Z,100782.91
2022-12-04T16:37:25.352Z,100788.94
2022-12-04T16:39:53.096Z,100793.97
2022-12-04T16:42:23.209Z,100797.44
2022-12-04T16:44:51.364Z,100801.06
2022-12-04T16:47:19.535Z,100801.25
2022-12-04T16:49:50.491Z,100802.91
2022-12-04T16:52:19.057Z,100803.94
2022-12-04T16:54:48.581Z,100805.63
2022-12-04T16:57:16.453Z,100808.34
2022-12-04T16:59:44.264Z,100805.44
2022-12-04T17:02:18.576Z,100804.66
2022-12-04T17:04:46.495Z,100810.88
2022-12-04T17:07:14.228Z,100805.63
2022-12-04T17:09:41.990Z,100810.66
2022-12-04T17:12:11.241Z,100814.13
2022-12-04T17:14:39.621Z,100809.94
2022-12-04T17:17:07.375Z,100814.91
2022-12-04T17:19:35.099Z,100807.69
2022-12-04T17:22:02.885Z,100821.88
2022-12-04T17:24:30.633Z,100816.94
2022-12-04T17:26:58.659Z,100819.00
2022-12-04T17:29:27.868Z,100832.16
2022-12-04T17:31:55.704Z,100839.00
2022-12-04T17:34:23.456Z,100837.81
2022-12-04T17:36:51.260Z,100837.47
2022-12-04T17:39:19.137Z,100836.50
2022-12-04T17:41:46.901Z,100840.63
2022-12-04T17:44:14.703Z,100845.88
2022-12-04T17:46:44.098Z,100849.06
2022-12-04T17:49:11.989Z,100852.75
2022-12-04T17:51:39.957Z,100860.78
2022-12-04T17:54:08.268Z,100862.13
2022-12-04T17:56:36.026Z,100863.31
2022-12-04T17:59:04.592Z,100868.91
2022-12-04T18:01:32.563Z,100870.22
2022-12-04T18:04:03.776Z,100873.50
2022-12-04T18:06:33.307Z,100881.19
2022-12-04T18:09:01.757Z,100874.72
2022-12-04T18:11:31.975Z,100884.28
2022-12-04T18:14:04.796Z,100878.19
2022-12-04T18:16:37.194Z,100884.69
2022-12-04T18:19:06.804Z,100888.09
2022-12-04T18:21:35.299Z,100894.44
2022-12-04T18:24:05.277Z,100892.50
2022-12-04T18:26:34.703Z,100898.41
2022-12-04T18:29:02.471Z,100887.56
2022-12-04T18:31:30.380Z,100886.03
2022-12-04T18:33:58.371Z,100894.88
2022-12-04T18:36:29.700Z,100882.53
2022-12-04T18:38:59.619Z,100892.78
2022-12-04T18:41:28.637Z,100893.13
2022-12-04T18:43:57.290Z,100896.03
2022-12-04T18:46:25.955Z,100899.09
2022-12-04T18:48:55.056Z,100913.97
2022-12-04T18:51:25.120Z,100913.13
2022-12-04T18:53:56.632Z,100918.00
2022-12-04T18:56:24.393Z,100915.25
2022-12-04T18:58:57.993Z,100918.59
2022-12-04T19:01:25.721Z,100914.38
2022-12-04T19:03:58.396Z,100924.31
2022-12-04T19:06:31.210Z,100920.50
2022-12-04T19:09:02.419Z,100932.41
2022-12-04T19:11:30.189Z,100924.53
2022-12-04T19:13:59.500Z,100920.41
2022-12-04T19:16:27.717Z,100914.78
2022-12-04T19:18:56.211Z,100919.72
2022-12-04T19:21:24.692Z,100916.50
2022-12-04T19:23:54.994Z,100917.66
2022-12-04T19:26:24.617Z,100913.66
2022-12-04T19:28:53.716Z,100915.25
2022-12-04T19:31:24.015Z,100923.38
2022-12-04T19:33:52.683Z,100931.75
2022-12-04T19:36:20.513Z,100936.22
2022-12-04T19:38:48.388Z,100940.34
2022-12-04T19:41:18.655Z,100950.13
2022-12-04T19:43:49.769Z,100943.09
2022-12-04T19:46:20.714Z,100942.88
2022-12-04T19:48:50.044Z,100946.47
2022-12-04T19:51:20.216Z,100948.38
2022-12-04T19:53:49.262Z,100946.66
2022-12-04T19:56:21.367Z,100945.91
2022-12-04T19:58:50.567Z,100951.78
2022-12-04T20:01:20.077Z,100956.75
2022-12-04T20:03:48.818Z,100954.34
2022-12-04T20:06:18.839Z,100951.69
2022-12-04T20:08:47.215Z,100956.75
2022-12-04T20:11:17.845Z,100962.59
2022-12-04T20:13:47.024Z,100965.25
2022-12-04T20:16:18.423Z,100967.19
2022-12-04T20:18:46.730Z,100961.97
2022-12-04T20:21:15.032Z,100963.16
2022-12-04T20:23:46.140Z,100969.19
2022-12-04T20:26:15.449Z,100969.72
2022-12-04T20:28:43.458Z,100978.78
2022-12-04T20:31:17.306Z,100968.22
2022-12-04T20:33:46.094Z,100972.22
2022-12-04T20:36:15.308Z,100976.81
2022-12-04T20:38:43.511Z,100985.44
2022-12-04T20:41:15.863Z,100990.59
2022-12-04T20:43:44.077Z,100992.41
2022-12-04T20:46:19.749Z,100993.25
2022-12-04T20:48:49.380Z,100996.00
2022-12-04T20:51:18.508Z,100997.41
2022-12-04T20:53:47.206Z,101000.16
2022-12-04T20:56:15.334Z,101008.84
2022-12-04T20:58:43.230Z,101005.94
2022-12-04T21:01:13.237Z,101006.69
2022-12-04T21:03:42.901Z,101018.38
2022-12-04T21:06:14.792Z,101016.72
2022-12-04T21:08:56.640Z,101019.59
2022-12-04T21:11:26.087Z,101020.56
2022-12-04T21:14:12.727Z,101012.66
2022-12-04T21:16:40.932Z,101017.66
2022-12-04T21:19:12.696Z,101029.16
2022-12-04T21:21:40.990Z,101021.94
2022-12-04T21:24:11.087Z,101031.19
2022-12-04T21:26:39.024Z,101036.03
2022-12-04T21:29:07.475Z,101036.34
2022-12-04T21:31:36.692Z,101032.00
2022-12-04T21:34:06.905Z,101034.69
2022-12-04T21:36:36.284Z,101040.41
2022-12-04T21:39:04.791Z,101039.94
2022-12-04T21:41:50.036Z,101038.94
2022-12-04T21:44:19.839Z,101045.94
2022-12-04T21:46:48.478Z,101043.56
2022-12-04T21:49:17.834Z,101043.78
2022-12-04T21:52:02.579Z,101050.28
2022-12-04T21:54:30.877Z,101058.28
2022-12-04T21:56:59.023Z,101065.31
2022-12-04T21:59:27.512Z,101063.66
2022-12-04T22:01:55.467Z,101070.44
2022-12-04T22:04:23.753Z,101073.28
2022-12-04T22:06:52.964Z,101076.78
2022-12-04T22:09:20.987Z,101079.16
2022-12-04T22:11:48.691Z,101090.78
2022-12-04T22:14:16.540Z,101094.97
2022-12-04T22:16:44.372Z,101091.50
2022-12-04T22:19:13.229Z,101088.88
2022-12-04T22:21:41.344Z,101089.59
2022-12-04T22:24:11.500Z,101082.72
2022-12-04T22:26:39.760Z,101073.63
2022-12-04T22:29:34.245Z,101076.34
2022-12-04T22:31:56.379Z,101080.34
2022-12-04T22:34:24.182Z,101089.31
2022-12-04T22:36:52.003Z,101084.72
2022-12-04T22:39:21.075Z,101086.19
2022-12-04T22:41:48.798Z,101083.56
2022-12-04T22:44:16.616Z,101082.72
2022-12-04T22:46:44.552Z,101093.09
2022-12-04T22:49:12.342Z,101083.31
2022-12-04T22:51:40.101Z,101091.31
2022-12-04T22:54:08.264Z,101087.84
2022-12-04T22:56:37.383Z,101097.72
2022-12-04T22:59:05.130Z,101096.63
2022-12-04T23:01:34.761Z,101102.94
2022-12-04T23:04:03.636Z,101098.56
2022-12-04T23:06:33.827Z,101105.53
2022-12-04T23:09:04.142Z,101109.06
2022-12-04T23:11:32.248Z,101107.59
2022-12-04T23:14:02.974Z,101116.75
2022-12-04T23:16:32.370Z,101108.13
2022-12-04T23:19:00.816Z,101122.31
2022-12-04T23:21:29.165Z,101118.53
2022-12-04T23:23:58.041Z,101122.78
2022-12-04T23:26:28.592Z,101130.47
2022-12-04T23:28:56.421Z,101138.28
2022-12-04T23:31:25.741Z,101131.06
2022-12-04T23:33:53.569Z,101138.09
2022-12-04T23:36:21.387Z,101141.47
2022-12-04T23:38:49.880Z,101136.16
2022-12-04T23:41:20.610Z,101127.47
2022-12-04T23:43:49.527Z,101135.34
2022-12-04T23:46:19.753Z,101136.31
2022-12-04T23:48:49.396Z,101132.91
2022-12-04T23:51:19.768Z,101128.47
2022-12-04T23:53:48.159Z,101124.91
2022-12-04T23:56:19.045Z,101128.41
2022-12-04T23:58:49.812Z,101134.53
